sensor_id;sensor_type;location;lat;lon;timestamp;P1;durP1;ratioP1;P2;durP2;ratioP2
18899;SDS011;9582;52.018;6.306;2022-10-03T00:01:57;15.93;;;3.90;;
18899;SDS011;9582;52.018;6.306;2022-10-03T00:04:39;9.20;;;3.20;;
18899;SDS011;9582;52.018;6.306;2022-10-03T00:07:26;16.33;;;3.87;;
18899;SDS011;9582;52.018;6.306;2022-10-03T00:10:06;17.43;;;3.97;;
18899;SDS011;9582;52.018;6.306;2022-10-03T00:12:49;13.20;;;3.50;;
18899;SDS011;9582;52.018;6.306;2022-10-03T00:15:31;15.37;;;3.93;;
18899;SDS011;9582;52.018;6.306;2022-10-03T00:18:07;11.67;;;4.30;;
18899;SDS011;9582;52.018;6.306;2022-10-03T00:20:47;15.20;;;3.57;;
18899;SDS011;9582;52.018;6.306;2022-10-03T00:23:36;15.50;;;4.00;;
18899;SDS011;9582;52.018;6.306;2022-10-03T00:26:12;15.53;;;4.33;;
18899;SDS011;9582;52.018;6.306;2022-10-03T00:28:59;16.83;;;4.30;;
18899;SDS011;9582;52.018;6.306;2022-10-03T00:31:40;14.30;;;4.60;;
18899;SDS011;9582;52.018;6.306;2022-10-03T00:34:20;15.70;;;4.23;;
18899;SDS011;9582;52.018;6.306;2022-10-03T00:36:59;15.07;;;5.10;;
18899;SDS011;9582;52.018;6.306;2022-10-03T00:39:42;14.20;;;4.80;;
18899;SDS011;9582;52.018;6.306;2022-10-03T00:45:35;13.00;;;3.87;;
18899;SDS011;9582;52.018;6.306;2022-10-03T00:48:24;15.57;;;4.17;;
18899;SDS011;9582;52.018;6.306;2022-10-03T00:51:23;14.40;;;4.50;;
18899;SDS011;9582;52.018;6.306;2022-10-03T00:54:05;14.97;;;4.47;;
18899;SDS011;9582;52.018;6.306;2022-10-03T00:56:51;16.67;;;5.20;;
18899;SDS011;9582;52.018;6.306;2022-10-03T00:59:29;21.63;;;4.67;;
18899;SDS011;9582;52.018;6.306;2022-10-03T01:05:11;10.97;;;4.47;;
18899;SDS011;9582;52.018;6.306;2022-10-03T01:07:57;17.97;;;4.77;;
18899;SDS011;9582;52.018;6.306;2022-10-03T01:10:49;13.13;;;4.90;;
18899;SDS011;9582;52.018;6.306;2022-10-03T01:13:25;15.20;;;4.80;;
18899;SDS011;9582;52.018;6.306;2022-10-03T01:16:03;13.37;;;4.97;;
18899;SDS011;9582;52.018;6.306;2022-10-03T01:18:40;16.73;;;4.97;;
18899;SDS011;9582;52.018;6.306;2022-10-03T01:21:19;20.63;;;5.27;;
18899;SDS011;9582;52.018;6.306;2022-10-03T01:24:12;16.77;;;4.87;;
18899;SDS011;9582;52.018;6.306;2022-10-03T01:26:53;14.40;;;4.90;;
18899;SDS011;9582;52.018;6.306;2022-10-03T01:29:27;15.57;;;5.23;;
18899;SDS011;9582;52.018;6.306;2022-10-03T01:32:22;15.87;;;5.37;;
18899;SDS011;9582;52.018;6.306;2022-10-03T01:34:56;10.83;;;4.73;;
18899;SDS011;9582;52.018;6.306;2022-10-03T01:37:31;15.93;;;5.20;;
18899;SDS011;9582;52.018;6.306;2022-10-03T01:40:07;14.77;;;4.97;;
18899;SDS011;9582;52.018;6.306;2022-10-03T01:42:43;12.73;;;5.30;;
18899;SDS011;9582;52.018;6.306;2022-10-03T01:45:23;17.10;;;4.90;;
18899;SDS011;9582;52.018;6.306;2022-10-03T01:47:59;14.40;;;4.83;;
18899;SDS011;9582;52.018;6.306;2022-10-03T01:50:29;14.83;;;5.60;;
18899;SDS011;9582;52.018;6.306;2022-10-03T01:53:02;13.00;;;5.23;;
18899;SDS011;9582;52.018;6.306;2022-10-03T01:55:40;19.77;;;6.57;;
18899;SDS011;9582;52.018;6.306;2022-10-03T01:58:40;16.13;;;5.57;;
18899;SDS011;9582;52.018;6.306;2022-10-03T02:01:42;15.97;;;5.50;;
18899;SDS011;9582;52.018;6.306;2022-10-03T02:04:18;20.03;;;6.07;;
18899;SDS011;9582;52.018;6.306;2022-10-03T02:06:58;15.03;;;5.43;;
18899;SDS011;9582;52.018;6.306;2022-10-03T02:09:32;17.47;;;5.53;;
18899;SDS011;9582;52.018;6.306;2022-10-03T02:12:06;13.13;;;5.20;;
18899;SDS011;9582;52.018;6.306;2022-10-03T02:14:46;16.43;;;5.83;;
18899;SDS011;9582;52.018;6.306;2022-10-03T02:17:23;13.80;;;6.20;;
18899;SDS011;9582;52.018;6.306;2022-10-03T02:19:58;17.50;;;6.47;;
18899;SDS011;9582;52.018;6.306;2022-10-03T02:22:32;15.77;;;6.00;;
18899;SDS011;9582;52.018;6.306;2022-10-03T02:25:07;20.97;;;6.60;;
18899;SDS011;9582;52.018;6.306;2022-10-03T02:27:49;20.50;;;6.40;;
18899;SDS011;9582;52.018;6.306;2022-10-03T02:30:33;10.87;;;6.10;;
18899;SDS011;9582;52.018;6.306;2022-10-03T02:33:30;20.00;;;6.37;;
18899;SDS011;9582;52.018;6.306;2022-10-03T02:39:29;13.33;;;6.40;;
18899;SDS011;9582;52.018;6.306;2022-10-03T02:45:36;14.77;;;6.27;;
18899;SDS011;9582;52.018;6.306;2022-10-03T02:51:40;14.63;;;6.50;;
18899;SDS011;9582;52.018;6.306;2022-10-03T02:54:19;16.60;;;5.80;;
18899;SDS011;9582;52.018;6.306;2022-10-03T02:57:10;12.90;;;5.10;;
18899;SDS011;9582;52.018;6.306;2022-10-03T03:00:08;12.10;;;5.53;;
18899;SDS011;9582;52.018;6.306;2022-10-03T03:05:54;10.97;;;5.57;;
18899;SDS011;9582;52.018;6.306;2022-10-03T03:08:53;10.97;;;5.40;;
18899;SDS011;9582;52.018;6.306;2022-10-03T03:14:28;9.87;;;5.13;;
18899;SDS011;9582;52.018;6.306;2022-10-03T03:17:16;10.43;;;5.17;;
18899;SDS011;9582;52.018;6.306;2022-10-03T03:20:00;8.33;;;4.87;;
18899;SDS011;9582;52.018;6.306;2022-10-03T03:22:42;9.77;;;5.50;;
18899;SDS011;9582;52.018;6.306;2022-10-03T03:25:28;8.37;;;5.13;;
18899;SDS011;9582;52.018;6.306;2022-10-03T03:28:12;9.27;;;5.27;;
18899;SDS011;9582;52.018;6.306;2022-10-03T03:30:50;9.17;;;5.50;;
18899;SDS011;9582;52.018;6.306;2022-10-03T03:33:25;8.70;;;5.27;;
18899;SDS011;9582;52.018;6.306;2022-10-03T03:35:59;14.90;;;5.43;;
18899;SDS011;9582;52.018;6.306;2022-10-03T03:38:34;11.70;;;5.67;;
18899;SDS011;9582;52.018;6.306;2022-10-03T03:44:19;13.70;;;6.47;;
18899;SDS011;9582;52.018;6.306;2022-10-03T03:47:09;9.87;;;5.50;;
18899;SDS011;9582;52.018;6.306;2022-10-03T03:49:49;12.17;;;5.30;;
18899;SDS011;9582;52.018;6.306;2022-10-03T03:52:33;11.83;;;5.67;;
18899;SDS011;9582;52.018;6.306;2022-10-03T03:55:15;16.90;;;7.27;;
18899;SDS011;9582;52.018;6.306;2022-10-03T03:58:04;15.87;;;6.60;;
18899;SDS011;9582;52.018;6.306;2022-10-03T04:00:45;12.40;;;5.37;;
18899;SDS011;9582;52.018;6.306;2022-10-03T04:03:25;12.30;;;5.60;;
18899;SDS011;9582;52.018;6.306;2022-10-03T04:06:04;9.40;;;5.10;;
18899;SDS011;9582;52.018;6.306;2022-10-03T04:08:49;9.27;;;5.43;;
18899;SDS011;9582;52.018;6.306;2022-10-03T04:11:30;9.73;;;5.13;;
18899;SDS011;9582;52.018;6.306;2022-10-03T04:14:13;9.77;;;5.20;;
18899;SDS011;9582;52.018;6.306;2022-10-03T04:17:03;11.03;;;5.33;;
18899;SDS011;9582;52.018;6.306;2022-10-03T04:20:01;12.43;;;5.87;;
18899;SDS011;9582;52.018;6.306;2022-10-03T04:22:48;12.90;;;5.37;;
18899;SDS011;9582;52.018;6.306;2022-10-03T04:25:30;9.47;;;5.67;;
18899;SDS011;9582;52.018;6.306;2022-10-03T04:28:20;13.33;;;5.70;;
18899;SDS011;9582;52.018;6.306;2022-10-03T04:31:02;11.87;;;5.83;;
18899;SDS011;9582;52.018;6.306;2022-10-03T04:36:41;10.60;;;5.97;;
18899;SDS011;9582;52.018;6.306;2022-10-03T04:39:33;10.37;;;5.63;;
18899;SDS011;9582;52.018;6.306;2022-10-03T04:42:08;9.27;;;5.60;;
18899;SDS011;9582;52.018;6.306;2022-10-03T04:44:49;13.93;;;6.93;;
18899;SDS011;9582;52.018;6.306;2022-10-03T04:47:27;16.17;;;6.57;;
18899;SDS011;9582;52.018;6.306;2022-10-03T04:49:59;12.53;;;6.00;;
18899;SDS011;9582;52.018;6.306;2022-10-03T04:52:31;16.10;;;6.10;;
18899;SDS011;9582;52.018;6.306;2022-10-03T04:55:05;16.23;;;8.23;;
18899;SDS011;9582;52.018;6.306;2022-10-03T04:57:44;12.67;;;6.17;;
18899;SDS011;9582;52.018;6.306;2022-10-03T05:00:21;13.27;;;6.43;;
18899;SDS011;9582;52.018;6.306;2022-10-03T05:02:51;11.87;;;5.67;;
18899;SDS011;9582;52.018;6.306;2022-10-03T05:08:26;8.60;;;6.03;;
18899;SDS011;9582;52.018;6.306;2022-10-03T05:11:02;10.23;;;5.63;;
18899;SDS011;9582;52.018;6.306;2022-10-03T05:13:38;11.30;;;6.23;;
18899;SDS011;9582;52.018;6.306;2022-10-03T05:16:19;10.37;;;5.47;;
18899;SDS011;9582;52.018;6.306;2022-10-03T05:18:54;10.30;;;5.47;;
18899;SDS011;9582;52.018;6.306;2022-10-03T05:21:31;12.27;;;7.47;;
18899;SDS011;9582;52.018;6.306;2022-10-03T05:24:08;12.50;;;7.03;;
18899;SDS011;9582;52.018;6.306;2022-10-03T05:26:43;9.50;;;6.13;;
18899;SDS011;9582;52.018;6.306;2022-10-03T05:29:17;8.63;;;6.27;;
18899;SDS011;9582;52.018;6.306;2022-10-03T05:31:54;10.57;;;6.43;;
18899;SDS011;9582;52.018;6.306;2022-10-03T05:34:37;15.17;;;7.00;;
18899;SDS011;9582;52.018;6.306;2022-10-03T05:37:28;17.13;;;7.90;;
18899;SDS011;9582;52.018;6.306;2022-10-03T05:40:11;18.07;;;8.20;;
18899;SDS011;9582;52.018;6.306;2022-10-03T05:42:46;14.40;;;8.27;;
18899;SDS011;9582;52.018;6.306;2022-10-03T05:45:27;18.17;;;7.80;;
18899;SDS011;9582;52.018;6.306;2022-10-03T05:48:12;20.30;;;9.03;;
18899;SDS011;9582;52.018;6.306;2022-10-03T05:50:55;21.97;;;9.30;;
18899;SDS011;9582;52.018;6.306;2022-10-03T05:59:54;14.57;;;7.40;;
18899;SDS011;9582;52.018;6.306;2022-10-03T06:02:45;18.80;;;8.67;;
18899;SDS011;9582;52.018;6.306;2022-10-03T06:05:30;14.90;;;7.90;;
18899;SDS011;9582;52.018;6.306;2022-10-03T06:08:19;14.27;;;8.13;;
18899;SDS011;9582;52.018;6.306;2022-10-03T06:11:06;16.53;;;8.60;;
18899;SDS011;9582;52.018;6.306;2022-10-03T06:13:50;12.63;;;7.93;;
18899;SDS011;9582;52.018;6.306;2022-10-03T06:16:35;15.10;;;8.43;;
18899;SDS011;9582;52.018;6.306;2022-10-03T06:19:12;22.47;;;9.13;;
18899;SDS011;9582;52.018;6.306;2022-10-03T06:25:02;19.83;;;9.47;;
18899;SDS011;9582;52.018;6.306;2022-10-03T06:28:14;15.37;;;9.00;;
18899;SDS011;9582;52.018;6.306;2022-10-03T06:31:11;18.77;;;9.57;;
18899;SDS011;9582;52.018;6.306;2022-10-03T06:34:02;20.23;;;9.63;;
18899;SDS011;9582;52.018;6.306;2022-10-03T06:43:13;23.57;;;9.33;;
18899;SDS011;9582;52.018;6.306;2022-10-03T06:46:05;22.37;;;9.63;;
18899;SDS011;9582;52.018;6.306;2022-10-03T06:49:04;20.47;;;9.53;;
18899;SDS011;9582;52.018;6.306;2022-10-03T06:52:06;22.33;;;10.40;;
18899;SDS011;9582;52.018;6.306;2022-10-03T07:01:13;21.03;;;9.87;;
18899;SDS011;9582;52.018;6.306;2022-10-03T07:04:13;18.63;;;9.60;;
18899;SDS011;9582;52.018;6.306;2022-10-03T07:07:12;21.03;;;9.87;;
18899;SDS011;9582;52.018;6.306;2022-10-03T07:13:21;17.83;;;8.37;;
18899;SDS011;9582;52.018;6.306;2022-10-03T07:16:13;15.30;;;7.90;;
18899;SDS011;9582;52.018;6.306;2022-10-03T07:25:02;19.10;;;8.70;;
18899;SDS011;9582;52.018;6.306;2022-10-03T07:27:55;16.77;;;8.37;;
18899;SDS011;9582;52.018;6.306;2022-10-03T07:30:48;18.30;;;9.17;;
18899;SDS011;9582;52.018;6.306;2022-10-03T07:33:37;20.93;;;9.00;;
18899;SDS011;9582;52.018;6.306;2022-10-03T07:39:43;17.63;;;8.67;;
18899;SDS011;9582;52.018;6.306;2022-10-03T07:42:39;19.73;;;8.63;;
18899;SDS011;9582;52.018;6.306;2022-10-03T07:45:36;19.33;;;8.70;;
18899;SDS011;9582;52.018;6.306;2022-10-03T07:48:15;19.47;;;7.87;;
18899;SDS011;9582;52.018;6.306;2022-10-03T07:51:12;17.53;;;8.03;;
18899;SDS011;9582;52.018;6.306;2022-10-03T08:00:09;15.23;;;7.17;;
18899;SDS011;9582;52.018;6.306;2022-10-03T08:02:45;17.77;;;8.00;;
18899;SDS011;9582;52.018;6.306;2022-10-03T08:05:38;18.53;;;7.60;;
18899;SDS011;9582;52.018;6.306;2022-10-03T08:08:27;18.23;;;7.40;;
18899;SDS011;9582;52.018;6.306;2022-10-03T08:11:25;11.67;;;6.83;;
18899;SDS011;9582;52.018;6.306;2022-10-03T08:14:08;17.20;;;6.37;;
18899;SDS011;9582;52.018;6.306;2022-10-03T08:19:44;15.43;;;7.07;;
18899;SDS011;9582;52.018;6.306;2022-10-03T08:22:31;14.40;;;6.57;;
18899;SDS011;9582;52.018;6.306;2022-10-03T08:27:58;11.80;;;6.70;;
18899;SDS011;9582;52.018;6.306;2022-10-03T08:30:44;13.77;;;6.17;;
18899;SDS011;9582;52.018;6.306;2022-10-03T08:33:30;12.13;;;6.30;;
18899;SDS011;9582;52.018;6.306;2022-10-03T08:39:09;14.77;;;6.20;;
18899;SDS011;9582;52.018;6.306;2022-10-03T08:44:59;10.50;;;6.23;;
18899;SDS011;9582;52.018;6.306;2022-10-03T08:50:49;13.00;;;5.95;;
18899;SDS011;9582;52.018;6.306;2022-10-03T08:53:44;9.95;;;4.45;;
18899;SDS011;9582;52.018;6.306;2022-10-03T08:56:54;11.27;;;5.25;;
18899;SDS011;9582;52.018;6.306;2022-10-03T08:59:40;8.90;;;5.55;;
18899;SDS011;9582;52.018;6.306;2022-10-03T09:05:46;11.73;;;4.07;;
18899;SDS011;9582;52.018;6.306;2022-10-03T09:08:46;11.05;;;4.57;;
18899;SDS011;9582;52.018;6.306;2022-10-03T09:11:28;11.43;;;5.00;;
18899;SDS011;9582;52.018;6.306;2022-10-03T09:14:36;10.68;;;3.85;;
18899;SDS011;9582;52.018;6.306;2022-10-03T09:23:35;11.77;;;3.08;;
18899;SDS011;9582;52.018;6.306;2022-10-03T09:29:30;7.72;;;3.70;;
18899;SDS011;9582;52.018;6.306;2022-10-03T09:32:23;7.65;;;3.58;;
18899;SDS011;9582;52.018;6.306;2022-10-03T09:38:14;9.80;;;3.15;;
18899;SDS011;9582;52.018;6.306;2022-10-03T09:44:22;8.93;;;3.10;;
18899;SDS011;9582;52.018;6.306;2022-10-03T09:47:04;7.88;;;3.05;;
18899;SDS011;9582;52.018;6.306;2022-10-03T09:50:07;7.82;;;2.50;;
18899;SDS011;9582;52.018;6.306;2022-10-03T09:53:11;11.82;;;2.70;;
18899;SDS011;9582;52.018;6.306;2022-10-03T09:56:08;9.88;;;2.83;;
18899;SDS011;9582;52.018;6.306;2022-10-03T09:59:07;8.02;;;2.40;;
18899;SDS011;9582;52.018;6.306;2022-10-03T10:01:46;9.55;;;2.78;;
18899;SDS011;9582;52.018;6.306;2022-10-03T10:04:24;8.13;;;2.55;;
18899;SDS011;9582;52.018;6.306;2022-10-03T10:10:13;8.88;;;2.50;;
18899;SDS011;9582;52.018;6.306;2022-10-03T10:13:10;6.97;;;2.20;;
18899;SDS011;9582;52.018;6.306;2022-10-03T10:16:04;5.50;;;2.10;;
18899;SDS011;9582;52.018;6.306;2022-10-03T10:28:00;5.07;;;1.60;;
18899;SDS011;9582;52.018;6.306;2022-10-03T10:40:23;6.30;;;1.48;;
18899;SDS011;9582;52.018;6.306;2022-10-03T10:46:19;5.28;;;1.30;;
18899;SDS011;9582;52.018;6.306;2022-10-03T10:49:37;6.22;;;1.27;;
18899;SDS011;9582;52.018;6.306;2022-10-03T10:52:29;8.02;;;2.05;;
18899;SDS011;9582;52.018;6.306;2022-10-03T10:58:25;8.13;;;1.63;;
18899;SDS011;9582;52.018;6.306;2022-10-03T11:01:27;4.35;;;1.30;;
18899;SDS011;9582;52.018;6.306;2022-10-03T11:10:34;3.25;;;1.50;;
18899;SDS011;9582;52.018;6.306;2022-10-03T11:13:27;5.65;;;1.40;;
18899;SDS011;9582;52.018;6.306;2022-10-03T11:16:40;6.47;;;1.30;;
18899;SDS011;9582;52.018;6.306;2022-10-03T11:22:48;4.55;;;1.13;;
18899;SDS011;9582;52.018;6.306;2022-10-03T11:32:32;4.63;;;1.20;;
18899;SDS011;9582;52.018;6.306;2022-10-03T11:35:28;6.05;;;1.40;;
18899;SDS011;9582;52.018;6.306;2022-10-03T11:38:21;9.18;;;2.00;;
18899;SDS011;9582;52.018;6.306;2022-10-03T11:40:55;6.45;;;1.40;;
18899;SDS011;9582;52.018;6.306;2022-10-03T11:43:39;6.35;;;1.45;;
18899;SDS011;9582;52.018;6.306;2022-10-03T11:46:25;7.00;;;1.40;;
18899;SDS011;9582;52.018;6.306;2022-10-03T11:49:11;5.85;;;1.35;;
18899;SDS011;9582;52.018;6.306;2022-10-03T11:51:53;6.85;;;1.40;;
18899;SDS011;9582;52.018;6.306;2022-10-03T11:54:32;3.50;;;1.40;;
18899;SDS011;9582;52.018;6.306;2022-10-03T11:57:05;3.90;;;1.48;;
18899;SDS011;9582;52.018;6.306;2022-10-03T11:59:36;4.18;;;1.30;;
18899;SDS011;9582;52.018;6.306;2022-10-03T12:02:18;6.90;;;1.33;;
18899;SDS011;9582;52.018;6.306;2022-10-03T12:05:04;6.82;;;1.73;;
18899;SDS011;9582;52.018;6.306;2022-10-03T12:07:41;4.97;;;1.42;;
18899;SDS011;9582;52.018;6.306;2022-10-03T12:10:32;5.75;;;1.60;;
18899;SDS011;9582;52.018;6.306;2022-10-03T12:13:07;8.40;;;1.52;;
18899;SDS011;9582;52.018;6.306;2022-10-03T12:15:39;5.60;;;1.90;;
18899;SDS011;9582;52.018;6.306;2022-10-03T12:18:09;6.75;;;1.67;;
18899;SDS011;9582;52.018;6.306;2022-10-03T12:20:59;7.82;;;1.80;;
18899;SDS011;9582;52.018;6.306;2022-10-03T12:23:37;4.43;;;1.73;;
18899;SDS011;9582;52.018;6.306;2022-10-03T12:26:20;7.07;;;1.60;;
18899;SDS011;9582;52.018;6.306;2022-10-03T12:28:55;5.20;;;1.60;;
18899;SDS011;9582;52.018;6.306;2022-10-03T12:31:24;6.68;;;1.67;;
18899;SDS011;9582;52.018;6.306;2022-10-03T12:34:01;6.63;;;1.80;;
18899;SDS011;9582;52.018;6.306;2022-10-03T12:36:43;5.75;;;1.92;;
18899;SDS011;9582;52.018;6.306;2022-10-03T12:39:19;4.80;;;1.50;;
18899;SDS011;9582;52.018;6.306;2022-10-03T12:42:03;6.40;;;1.80;;
18899;SDS011;9582;52.018;6.306;2022-10-03T12:44:48;5.38;;;1.70;;
18899;SDS011;9582;52.018;6.306;2022-10-03T12:47:25;11.00;;;2.20;;
18899;SDS011;9582;52.018;6.306;2022-10-03T12:49:57;9.73;;;2.67;;
18899;SDS011;9582;52.018;6.306;2022-10-03T12:52:34;8.10;;;2.05;;
18899;SDS011;9582;52.018;6.306;2022-10-03T12:55:14;7.20;;;1.85;;
18899;SDS011;9582;52.018;6.306;2022-10-03T12:58:03;4.63;;;1.60;;
18899;SDS011;9582;52.018;6.306;2022-10-03T13:00:43;6.38;;;1.70;;
18899;SDS011;9582;52.018;6.306;2022-10-03T13:03:22;7.68;;;1.63;;
18899;SDS011;9582;52.018;6.306;2022-10-03T13:09:03;6.55;;;1.90;;
18899;SDS011;9582;52.018;6.306;2022-10-03T13:11:42;4.82;;;1.52;;
18899;SDS011;9582;52.018;6.306;2022-10-03T13:14:24;7.03;;;1.95;;
18899;SDS011;9582;52.018;6.306;2022-10-03T13:17:09;9.00;;;2.15;;
18899;SDS011;9582;52.018;6.306;2022-10-03T13:19:49;6.15;;;1.70;;
18899;SDS011;9582;52.018;6.306;2022-10-03T13:22:24;7.88;;;1.80;;
18899;SDS011;9582;52.018;6.306;2022-10-03T13:24:59;6.88;;;1.92;;
18899;SDS011;9582;52.018;6.306;2022-10-03T13:27:30;5.45;;;1.52;;
18899;SDS011;9582;52.018;6.306;2022-10-03T13:30:08;5.15;;;1.88;;
18899;SDS011;9582;52.018;6.306;2022-10-03T13:32:43;7.20;;;1.90;;
18899;SDS011;9582;52.018;6.306;2022-10-03T13:38:39;5.28;;;1.80;;
18899;SDS011;9582;52.018;6.306;2022-10-03T13:41:26;6.43;;;1.65;;
18899;SDS011;9582;52.018;6.306;2022-10-03T13:43:58;5.40;;;2.00;;
18899;SDS011;9582;52.018;6.306;2022-10-03T13:46:30;4.50;;;1.70;;
18899;SDS011;9582;52.018;6.306;2022-10-03T13:49:10;5.13;;;1.83;;
18899;SDS011;9582;52.018;6.306;2022-10-03T13:51:45;4.10;;;1.42;;
18899;SDS011;9582;52.018;6.306;2022-10-03T13:54:20;8.38;;;2.08;;
18899;SDS011;9582;52.018;6.306;2022-10-03T13:56:54;4.15;;;1.63;;
18899;SDS011;9582;52.018;6.306;2022-10-03T13:59:28;7.50;;;1.70;;
18899;SDS011;9582;52.018;6.306;2022-10-03T14:02:05;4.45;;;1.60;;
18899;SDS011;9582;52.018;6.306;2022-10-03T14:04:50;6.63;;;1.95;;
18899;SDS011;9582;52.018;6.306;2022-10-03T14:07:28;10.15;;;1.85;;
18899;SDS011;9582;52.018;6.306;2022-10-03T14:10:07;5.45;;;1.75;;
18899;SDS011;9582;52.018;6.306;2022-10-03T14:12:45;7.35;;;2.08;;
18899;SDS011;9582;52.018;6.306;2022-10-03T14:15:25;8.75;;;2.20;;
18899;SDS011;9582;52.018;6.306;2022-10-03T14:18:04;7.22;;;2.45;;
18899;SDS011;9582;52.018;6.306;2022-10-03T14:21:07;6.43;;;1.80;;
18899;SDS011;9582;52.018;6.306;2022-10-03T14:23:50;3.00;;;1.52;;
18899;SDS011;9582;52.018;6.306;2022-10-03T14:26:29;6.53;;;1.73;;
18899;SDS011;9582;52.018;6.306;2022-10-03T14:29:04;4.07;;;1.77;;
18899;SDS011;9582;52.018;6.306;2022-10-03T14:31:44;4.53;;;1.75;;
18899;SDS011;9582;52.018;6.306;2022-10-03T14:34:19;5.13;;;1.95;;
18899;SDS011;9582;52.018;6.306;2022-10-03T14:36:55;5.68;;;1.70;;
18899;SDS011;9582;52.018;6.306;2022-10-03T14:39:30;11.38;;;4.13;;
18899;SDS011;9582;52.018;6.306;2022-10-03T14:42:10;6.35;;;2.30;;
18899;SDS011;9582;52.018;6.306;2022-10-03T14:44:52;9.38;;;2.45;;
18899;SDS011;9582;52.018;6.306;2022-10-03T14:47:21;12.18;;;3.17;;
18899;SDS011;9582;52.018;6.306;2022-10-03T14:49:51;8.40;;;4.30;;
18899;SDS011;9582;52.018;6.306;2022-10-03T14:52:23;12.40;;;5.70;;
18899;SDS011;9582;52.018;6.306;2022-10-03T14:54:56;12.32;;;6.63;;
18899;SDS011;9582;52.018;6.306;2022-10-03T14:57:30;13.75;;;7.53;;
18899;SDS011;9582;52.018;6.306;2022-10-03T14:59:59;18.60;;;8.60;;
18899;SDS011;9582;52.018;6.306;2022-10-03T15:02:27;13.98;;;7.03;;
18899;SDS011;9582;52.018;6.306;2022-10-03T15:05:00;9.27;;;4.53;;
18899;SDS011;9582;52.018;6.306;2022-10-03T15:07:33;7.82;;;2.25;;
18899;SDS011;9582;52.018;6.306;2022-10-03T15:10:04;6.53;;;2.42;;
18899;SDS011;9582;52.018;6.306;2022-10-03T15:12:34;6.47;;;1.70;;
18899;SDS011;9582;52.018;6.306;2022-10-03T15:15:04;6.80;;;1.77;;
18899;SDS011;9582;52.018;6.306;2022-10-03T15:17:36;6.25;;;1.67;;
18899;SDS011;9582;52.018;6.306;2022-10-03T15:20:11;4.85;;;1.67;;
18899;SDS011;9582;52.018;6.306;2022-10-03T15:22:45;11.30;;;1.88;;
18899;SDS011;9582;52.018;6.306;2022-10-03T15:25:15;4.85;;;1.63;;
18899;SDS011;9582;52.018;6.306;2022-10-03T15:27:45;4.93;;;1.75;;
18899;SDS011;9582;52.018;6.306;2022-10-03T15:30:17;4.75;;;1.83;;
18899;SDS011;9582;52.018;6.306;2022-10-03T15:32:46;6.45;;;2.13;;
18899;SDS011;9582;52.018;6.306;2022-10-03T15:35:16;4.85;;;1.70;;
18899;SDS011;9582;52.018;6.306;2022-10-03T15:37:45;4.93;;;1.60;;
18899;SDS011;9582;52.018;6.306;2022-10-03T15:40:19;5.40;;;1.85;;
18899;SDS011;9582;52.018;6.306;2022-10-03T15:42:48;6.70;;;1.80;;
18899;SDS011;9582;52.018;6.306;2022-10-03T15:45:17;5.82;;;1.63;;
18899;SDS011;9582;52.018;6.306;2022-10-03T15:47:49;3.83;;;1.58;;
18899;SDS011;9582;52.018;6.306;2022-10-03T15:50:19;5.95;;;1.90;;
18899;SDS011;9582;52.018;6.306;2022-10-03T15:52:51;7.65;;;1.60;;
18899;SDS011;9582;52.018;6.306;2022-10-03T15:55:23;6.57;;;2.17;;
18899;SDS011;9582;52.018;6.306;2022-10-03T15:57:57;5.15;;;1.88;;
18899;SDS011;9582;52.018;6.306;2022-10-03T16:00:27;6.57;;;1.70;;
18899;SDS011;9582;52.018;6.306;2022-10-03T16:02:59;5.22;;;2.00;;
18899;SDS011;9582;52.018;6.306;2022-10-03T16:05:36;7.13;;;2.08;;
18899;SDS011;9582;52.018;6.306;2022-10-03T16:08:15;7.40;;;1.83;;
18899;SDS011;9582;52.018;6.306;2022-10-03T16:10:47;5.28;;;1.63;;
18899;SDS011;9582;52.018;6.306;2022-10-03T16:13:24;4.07;;;1.60;;
18899;SDS011;9582;52.018;6.306;2022-10-03T16:16:04;5.10;;;1.70;;
18899;SDS011;9582;52.018;6.306;2022-10-03T16:18:39;6.57;;;1.90;;
18899;SDS011;9582;52.018;6.306;2022-10-03T16:21:12;7.70;;;1.88;;
18899;SDS011;9582;52.018;6.306;2022-10-03T16:23:44;6.80;;;1.70;;
18899;SDS011;9582;52.018;6.306;2022-10-03T16:26:13;4.65;;;1.83;;
18899;SDS011;9582;52.018;6.306;2022-10-03T16:28:48;5.22;;;1.63;;
18899;SDS011;9582;52.018;6.306;2022-10-03T16:31:18;5.30;;;1.52;;
18899;SDS011;9582;52.018;6.306;2022-10-03T16:33:48;4.68;;;1.67;;
18899;SDS011;9582;52.018;6.306;2022-10-03T16:36:20;8.00;;;1.98;;
18899;SDS011;9582;52.018;6.306;2022-10-03T16:38:50;10.35;;;2.30;;
18899;SDS011;9582;52.018;6.306;2022-10-03T16:41:20;7.80;;;3.55;;
18899;SDS011;9582;52.018;6.306;2022-10-03T16:43:53;5.85;;;3.00;;
18899;SDS011;9582;52.018;6.306;2022-10-03T16:46:22;6.45;;;2.72;;
18899;SDS011;9582;52.018;6.306;2022-10-03T16:48:50;5.47;;;2.40;;
18899;SDS011;9582;52.018;6.306;2022-10-03T16:51:39;7.93;;;2.25;;
18899;SDS011;9582;52.018;6.306;2022-10-03T16:54:10;6.53;;;2.17;;
18899;SDS011;9582;52.018;6.306;2022-10-03T16:56:38;5.82;;;2.15;;
18899;SDS011;9582;52.018;6.306;2022-10-03T16:59:09;5.75;;;2.00;;
18899;SDS011;9582;52.018;6.306;2022-10-03T17:01:41;4.60;;;1.98;;
18899;SDS011;9582;52.018;6.306;2022-10-03T17:04:12;4.47;;;1.95;;
18899;SDS011;9582;52.018;6.306;2022-10-03T17:06:47;4.68;;;2.00;;
18899;SDS011;9582;52.018;6.306;2022-10-03T17:09:18;5.45;;;2.20;;
18899;SDS011;9582;52.018;6.306;2022-10-03T17:11:51;5.85;;;2.10;;
18899;SDS011;9582;52.018;6.306;2022-10-03T17:14:20;6.80;;;2.20;;
18899;SDS011;9582;52.018;6.306;2022-10-03T17:16:49;8.00;;;2.53;;
18899;SDS011;9582;52.018;6.306;2022-10-03T17:19:28;7.95;;;2.45;;
18899;SDS011;9582;52.018;6.306;2022-10-03T17:22:03;10.40;;;2.25;;
18899;SDS011;9582;52.018;6.306;2022-10-03T17:24:40;5.72;;;2.15;;
18899;SDS011;9582;52.018;6.306;2022-10-03T17:27:14;6.63;;;2.50;;
18899;SDS011;9582;52.018;6.306;2022-10-03T17:29:47;7.25;;;2.53;;
18899;SDS011;9582;52.018;6.306;2022-10-03T17:32:21;7.40;;;2.65;;
18899;SDS011;9582;52.018;6.306;2022-10-03T17:34:53;5.88;;;3.47;;
18899;SDS011;9582;52.018;6.306;2022-10-03T17:40:21;7.15;;;3.05;;
18899;SDS011;9582;52.018;6.306;2022-10-03T17:42:56;6.13;;;3.20;;
18899;SDS011;9582;52.018;6.306;2022-10-03T17:45:28;6.32;;;3.05;;
18899;SDS011;9582;52.018;6.306;2022-10-03T17:47:59;9.13;;;3.10;;
18899;SDS011;9582;52.018;6.306;2022-10-03T17:50:35;8.60;;;3.40;;
18899;SDS011;9582;52.018;6.306;2022-10-03T17:53:11;9.07;;;3.25;;
18899;SDS011;9582;52.018;6.306;2022-10-03T17:55:45;6.15;;;3.33;;
18899;SDS011;9582;52.018;6.306;2022-10-03T17:58:16;11.32;;;4.25;;
18899;SDS011;9582;52.018;6.306;2022-10-03T18:03:36;8.15;;;4.32;;
18899;SDS011;9582;52.018;6.306;2022-10-03T18:09:05;9.98;;;3.78;;
18899;SDS011;9582;52.018;6.306;2022-10-03T18:11:36;8.57;;;3.72;;
18899;SDS011;9582;52.018;6.306;2022-10-03T18:14:07;9.55;;;3.67;;
18899;SDS011;9582;52.018;6.306;2022-10-03T18:16:42;8.25;;;3.65;;
18899;SDS011;9582;52.018;6.306;2022-10-03T18:19:20;8.23;;;4.03;;
18899;SDS011;9582;52.018;6.306;2022-10-03T18:21:57;10.18;;;4.03;;
18899;SDS011;9582;52.018;6.306;2022-10-03T18:24:51;7.10;;;4.15;;
18899;SDS011;9582;52.018;6.306;2022-10-03T18:30:13;6.90;;;4.25;;
18899;SDS011;9582;52.018;6.306;2022-10-03T18:32:42;11.73;;;4.45;;
18899;SDS011;9582;52.018;6.306;2022-10-03T18:35:11;7.70;;;4.07;;
18899;SDS011;9582;52.018;6.306;2022-10-03T18:37:52;8.98;;;4.22;;
18899;SDS011;9582;52.018;6.306;2022-10-03T18:40:27;7.55;;;4.13;;
18899;SDS011;9582;52.018;6.306;2022-10-03T18:42:55;10.15;;;4.70;;
18899;SDS011;9582;52.018;6.306;2022-10-03T18:45:25;12.10;;;4.60;;
18899;SDS011;9582;52.018;6.306;2022-10-03T18:47:57;11.43;;;4.90;;
18899;SDS011;9582;52.018;6.306;2022-10-03T18:50:30;9.60;;;4.65;;
18899;SDS011;9582;52.018;6.306;2022-10-03T18:53:12;8.93;;;4.22;;
18899;SDS011;9582;52.018;6.306;2022-10-03T18:55:45;9.85;;;4.50;;
18899;SDS011;9582;52.018;6.306;2022-10-03T18:58:16;10.35;;;5.47;;
18899;SDS011;9582;52.018;6.306;2022-10-03T19:00:47;10.50;;;5.47;;
18899;SDS011;9582;52.018;6.306;2022-10-03T19:03:17;8.55;;;5.18;;
18899;SDS011;9582;52.018;6.306;2022-10-03T19:05:50;10.80;;;5.78;;